createdAt,value
2022-12-16T00:00:16.465Z,9.35
2022-12-16T00:02:44.650Z,10.13
2022-12-16T00:05:12.554Z,9.48
2022-12-16T00:07:40.416Z,9.35
2022-12-16T00:10:11.639Z,11.23
2022-12-16T00:12:41.335Z,9.73
2022-12-16T00:15:09.944Z,8.43
2022-12-16T00:17:37.993Z,7.57
2022-12-16T00:20:06.965Z,12.02
2022-12-16T00:22:35.235Z,11.38
2022-12-16T00:25:02.909Z,8.48
2022-12-16T00:27:30.829Z,10.60
2022-12-16T00:30:00.309Z,11.15
2022-12-16T00:32:28.044Z,8.82
2022-12-16T00:34:55.859Z,12.25
2022-12-16T00:37:24.121Z,8.43
2022-12-16T00:39:55.305Z,9.13
2022-12-16T00:42:26.299Z,9.32
2022-12-16T00:44:54.581Z,13.68
2022-12-16T00:47:22.678Z,11.10
2022-12-16T00:49:50.565Z,16.55
2022-12-16T00:52:18.837Z,10.70
2022-12-16T00:54:46.672Z,11.90
2022-12-16T00:57:14.494Z,10.55
2022-12-16T00:59:42.723Z,12.65
2022-12-16T01:02:11.406Z,10.70
2022-12-16T01:04:39.382Z,11.82
2022-12-16T01:07:07.576Z,11.48
2022-12-16T01:09:36.729Z,17.10
2022-12-16T01:12:04.712Z,11.63
2022-12-16T01:14:33.013Z,7.32
2022-12-16T01:17:01.782Z,12.13
2022-12-16T01:19:29.576Z,14.32
2022-12-16T01:21:57.809Z,7.55
2022-12-16T01:24:25.707Z,12.23
2022-12-16T01:26:56.716Z,11.12
2022-12-16T01:29:25.723Z,9.18
2022-12-16T01:31:56.907Z,9.18
2022-12-16T01:34:25.100Z,15.63
2022-12-16T01:36:52.930Z,11.27
2022-12-16T01:39:20.863Z,15.45
2022-12-16T01:41:51.943Z,11.93
2022-12-16T01:44:22.506Z,12.55
2022-12-16T01:47:00.991Z,9.68
2022-12-16T01:49:35.200Z,6.85
2022-12-16T01:52:08.780Z,13.30
2022-12-16T01:54:55.370Z,12.70
2022-12-16T01:57:49.259Z,13.05
2022-12-16T02:00:17.227Z,10.57
2022-12-16T02:02:47.989Z,11.00
2022-12-16T02:05:20.691Z,13.43
2022-12-16T02:08:02.776Z,13.35
2022-12-16T02:11:03.316Z,15.00
2022-12-16T02:14:09.905Z,16.33
2022-12-16T02:16:52.642Z,12.32
2022-12-16T02:19:57.471Z,11.68
2022-12-16T02:22:29.022Z,13.90
2022-12-16T02:25:11.106Z,13.88
2022-12-16T02:27:56.157Z,14.15
2022-12-16T02:30:26.682Z,11.77
2022-12-16T02:33:11.582Z,8.90
2022-12-16T02:35:52.436Z,12.98
2022-12-16T02:38:31.227Z,15.82
2022-12-16T02:41:05.533Z,11.85
2022-12-16T02:43:52.589Z,19.85
2022-12-16T02:46:27.352Z,14.50
2022-12-16T02:48:55.799Z,14.80
2022-12-16T02:51:26.955Z,11.43
2022-12-16T02:53:56.837Z,11.88
2022-12-16T02:56:53.587Z,13.07
2022-12-16T02:59:32.618Z,11.20
2022-12-16T03:02:13.470Z,16.37
2022-12-16T03:05:01.596Z,17.83
2022-12-16T03:07:36.753Z,11.07
2022-12-16T03:10:08.154Z,16.42
2022-12-16T03:12:38.769Z,14.93
2022-12-16T03:15:08.947Z,7.20
2022-12-16T03:17:40.396Z,15.07
2022-12-16T03:20:37.127Z,13.62
2022-12-16T03:23:10.776Z,16.48
2022-12-16T03:25:43.058Z,12.60
2022-12-16T03:28:22.818Z,12.18
2022-12-16T03:30:59.746Z,17.20
2022-12-16T03:33:45.741Z,10.57
2022-12-16T03:36:21.523Z,10.63
2022-12-16T03:38:51.287Z,5.78
2022-12-16T03:41:24.398Z,11.57
2022-12-16T03:43:53.125Z,12.45
2022-12-16T03:46:21.730Z,12.82
2022-12-16T03:48:51.539Z,12.23
2022-12-16T03:51:20.028Z,11.40
2022-12-16T03:53:48.249Z,10.55
2022-12-16T03:56:16.734Z,16.40
2022-12-16T03:58:44.659Z,13.20
2022-12-16T04:01:13.328Z,11.90
2022-12-16T04:03:41.845Z,15.13
2022-12-16T04:06:09.755Z,10.18
2022-12-16T04:08:37.674Z,14.05
2022-12-16T04:11:24.537Z,17.98
2022-12-16T04:14:11.072Z,10.23
2022-12-16T04:16:57.960Z,21.15
2022-12-16T04:19:50.573Z,14.07
2022-12-16T04:22:48.848Z,13.13
2022-12-16T04:25:30.292Z,14.70
2022-12-16T04:27:58.979Z,12.65
2022-12-16T04:30:28.450Z,11.75
2022-12-16T04:33:28.435Z,10.18
2022-12-16T04:36:15.514Z,13.60
2022-12-16T04:39:04.498Z,9.55
2022-12-16T04:41:51.442Z,8.95
2022-12-16T04:44:37.951Z,10.52
2022-12-16T04:47:25.111Z,9.68
2022-12-16T04:50:11.511Z,10.73
2022-12-16T04:53:01.668Z,10.82
2022-12-16T04:55:50.748Z,9.32
2022-12-16T04:58:37.713Z,11.90
2022-12-16T05:01:24.395Z,8.95
2022-12-16T05:04:11.419Z,12.60
2022-12-16T05:06:57.719Z,11.93
2022-12-16T05:09:44.508Z,10.10
2022-12-16T05:12:31.015Z,13.40
2022-12-16T05:15:17.831Z,10.57
2022-12-16T05:18:04.320Z,9.30
2022-12-16T05:20:51.178Z,12.20
2022-12-16T05:23:37.831Z,10.35
2022-12-16T05:26:24.343Z,10.48
2022-12-16T05:29:10.911Z,10.52
2022-12-16T05:31:57.754Z,13.18
2022-12-16T05:34:44.097Z,12.20
2022-12-16T05:37:30.980Z,10.80
2022-12-16T05:40:17.389Z,12.95
2022-12-16T05:43:06.492Z,14.10
2022-12-16T05:45:53.199Z,14.77
2022-12-16T05:48:44.446Z,11.48
2022-12-16T05:51:34.052Z,13.10
2022-12-16T05:54:20.913Z,13.82
2022-12-16T05:57:07.192Z,10.77
2022-12-16T05:59:54.045Z,13.65
2022-12-16T06:02:41.176Z,12.93
2022-12-16T06:05:27.970Z,13.23
2022-12-16T06:08:14.311Z,12.95
2022-12-16T06:11:18.144Z,14.05
2022-12-16T06:14:04.318Z,13.50
2022-12-16T06:17:08.148Z,12.77
2022-12-16T06:22:41.219Z,12.20
2022-12-16T06:25:27.714Z,13.80
2022-12-16T06:28:14.283Z,11.98
2022-12-16T06:31:11.335Z,13.98
2022-12-16T06:33:58.198Z,13.95
2022-12-16T06:36:44.672Z,14.13
2022-12-16T06:39:31.491Z,9.38
2022-12-16T06:42:17.741Z,11.73
2022-12-16T06:45:04.571Z,14.98
2022-12-16T06:47:51.427Z,15.32
2022-12-16T06:50:42.981Z,13.88
2022-12-16T06:53:31.571Z,14.70
2022-12-16T06:56:18.768Z,12.43
2022-12-16T06:59:05.005Z,10.00
2022-12-16T07:01:51.743Z,14.48
2022-12-16T07:04:38.183Z,12.60
2022-12-16T07:07:25.282Z,6.15
2022-12-16T07:10:11.660Z,14.43
2022-12-16T07:13:02.074Z,11.98
2022-12-16T07:15:48.582Z,14.48
2022-12-16T07:18:35.067Z,15.00
2022-12-16T07:21:24.820Z,13.55
2022-12-16T07:24:11.743Z,16.60
2022-12-16T07:26:58.056Z,12.93
2022-12-16T07:29:44.454Z,13.15
2022-12-16T07:32:33.531Z,15.75
2022-12-16T07:35:20.121Z,12.88
2022-12-16T07:38:23.566Z,16.62
2022-12-16T07:41:10.225Z,18.30
2022-12-16T07:43:56.671Z,15.48
2022-12-16T07:46:45.991Z,12.85
2022-12-16T07:49:32.530Z,11.15
2022-12-16T07:52:19.224Z,11.00
2022-12-16T07:55:05.587Z,11.90
2022-12-16T07:57:52.506Z,14.05
2022-12-16T08:00:38.983Z,13.40
2022-12-16T08:03:25.538Z,14.38
2022-12-16T08:06:33.909Z,11.00
2022-12-16T08:09:23.856Z,11.77
2022-12-16T08:12:10.028Z,12.70
2022-12-16T08:14:56.501Z,12.07
2022-12-16T08:17:42.503Z,10.30
2022-12-16T08:20:29.527Z,9.45
2022-12-16T08:23:18.637Z,9.15
2022-12-16T08:26:05.292Z,12.27
2022-12-16T08:28:52.129Z,9.77
2022-12-16T08:31:39.809Z,11.75
2022-12-16T08:34:25.903Z,11.73
2022-12-16T08:37:12.796Z,11.57
2022-12-16T08:40:25.802Z,10.73
2022-12-16T08:43:10.951Z,9.10
2022-12-16T08:46:00.332Z,10.80
2022-12-16T08:48:47.244Z,10.45
2022-12-16T08:51:33.554Z,9.60
2022-12-16T08:54:20.167Z,9.95
2022-12-16T08:57:06.494Z,12.82
2022-12-16T08:59:53.084Z,12.60
2022-12-16T09:02:39.560Z,11.00
2022-12-16T09:05:27.171Z,14.00
2022-12-16T09:08:19.503Z,12.23
2022-12-16T09:11:05.936Z,12.13
2022-12-16T09:13:52.363Z,8.05
2022-12-16T09:16:38.970Z,9.70
2022-12-16T09:19:25.638Z,9.82
2022-12-16T09:22:12.848Z,8.80
2022-12-16T09:24:59.289Z,9.50
2022-12-16T09:27:46.011Z,11.23
2022-12-16T09:30:32.631Z,7.70
2022-12-16T09:33:21.581Z,12.13
2022-12-16T09:36:08.021Z,9.88
2022-12-16T09:38:54.693Z,8.05
2022-12-16T09:42:04.315Z,8.27
2022-12-16T09:44:57.788Z,9.07
2022-12-16T09:47:56.176Z,9.73
2022-12-16T09:50:45.776Z,11.02
2022-12-16T09:53:36.942Z,9.68
2022-12-16T09:56:36.406Z,10.30
2022-12-16T09:59:31.867Z,8.45
2022-12-16T10:02:19.927Z,7.87
2022-12-16T10:05:11.789Z,12.15
2022-12-16T10:08:07.154Z,9.85
2022-12-16T10:11:27.313Z,9.18
2022-12-16T10:14:40.533Z,9.27
2022-12-16T10:17:41.515Z,11.23
2022-12-16T10:21:10.009Z,10.00
2022-12-16T10:24:25.012Z,13.48
2022-12-16T10:27:32.810Z,12.70
2022-12-16T10:30:21.257Z,9.88
2022-12-16T10:33:14.149Z,9.05
2022-12-16T10:36:08.362Z,7.68
2022-12-16T10:39:12.691Z,11.55
2022-12-16T10:42:04.683Z,12.95
2022-12-16T10:44:59.555Z,8.00
2022-12-16T10:47:46.252Z,9.48
2022-12-16T10:50:33.800Z,9.93
2022-12-16T10:53:24.637Z,9.30
2022-12-16T10:56:17.238Z,11.98
2022-12-16T10:59:13.998Z,9.95
2022-12-16T11:02:00.554Z,8.07
2022-12-16T11:04:56.394Z,10.85
2022-12-16T11:07:56.782Z,9.90
2022-12-16T11:10:56.028Z,9.40
2022-12-16T11:13:47.817Z,11.00
2022-12-16T11:16:54.877Z,10.85
2022-12-16T11:19:49.122Z,8.77
2022-12-16T11:22:38.548Z,8.80
2022-12-16T11:25:38.470Z,10.18
2022-12-16T11:28:36.773Z,11.10
2022-12-16T11:31:32.426Z,13.00
2022-12-16T11:34:21.741Z,10.57
2022-12-16T11:37:11.209Z,11.52
2022-12-16T11:39:59.368Z,13.02
2022-12-16T11:42:51.506Z,9.52
2022-12-16T11:45:40.490Z,8.48
2022-12-16T11:48:53.199Z,10.05
2022-12-16T11:51:41.779Z,7.62
2022-12-16T11:54:44.807Z,9.32
2022-12-16T12:00:33.839Z,11.48
2022-12-16T12:06:21.275Z,11.65
2022-12-16T12:09:39.069Z,9.55
2022-12-16T12:13:12.624Z,12.20
2022-12-16T12:16:14.812Z,10.95
2022-12-16T12:19:09.883Z,11.75
2022-12-16T12:22:17.973Z,10.00
2022-12-16T12:25:16.707Z,23.73
2022-12-16T12:28:42.973Z,15.07
2022-12-16T12:32:14.215Z,11.50
2022-12-16T12:35:01.019Z,31.52
2022-12-16T12:38:26.983Z,16.48
2022-12-16T12:41:20.542Z,16.15
2022-12-16T12:44:36.437Z,14.13
2022-12-16T12:47:32.208Z,16.75
2022-12-16T12:50:35.850Z,11.32
2022-12-16T12:53:34.770Z,11.82
2022-12-16T12:56:44.346Z,12.15
2022-12-16T12:59:46.139Z,10.82
2022-12-16T13:02:39.878Z,13.57
2022-12-16T13:05:32.677Z,12.63
2022-12-16T13:08:58.110Z,10.90
2022-12-16T13:11:58.809Z,10.93
2022-12-16T13:14:51.950Z,9.68
2022-12-16T13:17:41.498Z,13.48
2022-12-16T13:20:50.749Z,12.43
2022-12-16T13:24:00.329Z,9.05
2022-12-16T13:26:48.849Z,10.77
2022-12-16T13:29:47.623Z,10.40
2022-12-16T13:32:38.028Z,11.25
2022-12-16T13:35:36.777Z,11.35
2022-12-16T13:38:40.160Z,9.82
2022-12-16T13:42:06.778Z,8.30
2022-12-16T13:45:02.977Z,9.27
2022-12-16T13:48:13.889Z,11.27
2022-12-16T13:51:03.209Z,10.10
2022-12-16T13:53:56.136Z,11.00
2022-12-16T13:56:53.662Z,12.57
2022-12-16T13:59:43.363Z,12.27
2022-12-16T14:02:42.268Z,13.52
2022-12-16T14:05:43.667Z,10.98
2022-12-16T14:08:36.366Z,11.77
2022-12-16T14:11:34.375Z,10.82
2022-12-16T14:14:43.488Z,14.43
2022-12-16T14:17:38.543Z,18.35
2022-12-16T14:20:25.320Z,10.55
2022-12-16T14:24:06.953Z,12.65
2022-12-16T14:26:47.372Z,13.00
2022-12-16T14:29:41.817Z,11.77
2022-12-16T14:32:40.480Z,10.45
2022-12-16T14:35:36.438Z,10.05
2022-12-16T14:38:47.916Z,11.07
2022-12-16T14:41:39.866Z,11.40
2022-12-16T14:44:37.858Z,14.60
2022-12-16T14:47:25.339Z,16.98
2022-12-16T14:50:13.844Z,17.23
2022-12-16T14:53:00.310Z,15.48
2022-12-16T14:55:50.367Z,13.98
2022-12-16T14:58:40.468Z,17.37
2022-12-16T15:01:39.782Z,16.70
2022-12-16T15:04:38.268Z,13.75
2022-12-16T15:07:31.697Z,12.65
2022-12-16T15:10:19.577Z,13.73
2022-12-16T15:13:08.401Z,14.55
2022-12-16T15:16:07.092Z,13.13
2022-12-16T15:19:01.929Z,23.73
2022-12-16T15:21:53.635Z,22.00
2022-12-16T15:24:45.916Z,20.08
2022-12-16T15:27:39.660Z,17.17
2022-12-16T15:30:55.601Z,14.60
2022-12-16T15:33:47.673Z,15.20
2022-12-16T15:36:40.204Z,14.87
2022-12-16T15:39:52.585Z,14.43
2022-12-16T15:42:56.964Z,14.70
2022-12-16T15:45:48.540Z,14.40
2022-12-16T15:48:51.779Z,16.40
2022-12-16T15:52:03.925Z,12.68
2022-12-16T15:55:08.223Z,16.42
2022-12-16T15:57:55.885Z,16.58
2022-12-16T16:00:49.490Z,10.65
2022-12-16T16:03:44.090Z,14.13
2022-12-16T16:06:48.225Z,17.12
2022-12-16T16:09:44.408Z,17.37
2022-12-16T16:12:33.353Z,12.70
2022-12-16T16:15:20.432Z,14.48
2022-12-16T16:18:12.813Z,16.92
2022-12-16T16:21:00.014Z,15.93
2022-12-16T16:23:51.802Z,14.82
2022-12-16T16:26:41.441Z,16.55
2022-12-16T16:29:30.191Z,16.25
2022-12-16T16:32:20.660Z,16.08
2022-12-16T16:35:07.805Z,16.75
2022-12-16T16:37:54.696Z,21.45
2022-12-16T16:40:51.735Z,16.52
2022-12-16T16:43:38.603Z,15.88
2022-12-16T16:46:40.045Z,14.77
2022-12-16T16:49:31.497Z,19.65
2022-12-16T16:52:17.991Z,17.52
2022-12-16T16:55:04.933Z,16.65
2022-12-16T16:57:56.141Z,10.57
2022-12-16T17:00:43.559Z,14.80
2022-12-16T17:03:30.152Z,19.02
2022-12-16T17:06:16.923Z,16.12
2022-12-16T17:09:03.559Z,18.37
2022-12-16T17:11:51.861Z,17.35
2022-12-16T17:14:39.853Z,17.37
2022-12-16T17:17:27.774Z,14.57
2022-12-16T17:20:17.438Z,18.48
2022-12-16T17:23:07.051Z,15.85
2022-12-16T17:25:53.904Z,16.35
2022-12-16T17:28:43.584Z,22.25
2022-12-16T17:31:30.689Z,15.13
2022-12-16T17:34:22.507Z,16.95
2022-12-16T17:37:11.428Z,17.67
2022-12-16T17:39:58.103Z,21.30
2022-12-16T17:42:46.833Z,15.23
2022-12-16T17:45:34.281Z,20.20
2022-12-16T17:48:20.708Z,18.73
2022-12-16T17:51:07.901Z,21.23
2022-12-16T17:54:00.144Z,22.02
2022-12-16T17:56:48.255Z,18.35
2022-12-16T17:59:34.710Z,18.85
2022-12-16T18:02:21.365Z,14.32
2022-12-16T18:05:08.605Z,15.35
2022-12-16T18:07:55.760Z,16.85
2022-12-16T18:10:42.474Z,19.10
2022-12-16T18:13:36.794Z,17.08
2022-12-16T18:16:24.042Z,13.85
2022-12-16T18:19:10.557Z,13.55
2022-12-16T18:21:58.946Z,13.85
2022-12-16T18:24:48.489Z,14.65
2022-12-16T18:27:38.802Z,15.43
2022-12-16T18:30:25.910Z,13.80
2022-12-16T18:33:12.940Z,16.83
2022-12-16T18:35:59.496Z,20.67
2022-12-16T18:38:45.980Z,13.23
2022-12-16T18:41:37.121Z,11.43
2022-12-16T18:44:24.539Z,16.62
2022-12-16T18:47:10.989Z,15.90
2022-12-16T18:49:57.900Z,10.88
2022-12-16T18:52:45.201Z,18.48
2022-12-16T18:55:32.217Z,14.27
2022-12-16T18:58:42.522Z,16.87
2022-12-16T19:01:28.993Z,17.05
2022-12-16T19:04:16.382Z,19.17
2022-12-16T19:07:03.521Z,18.92
2022-12-16T19:09:49.853Z,16.50
2022-12-16T19:12:36.857Z,18.80
2022-12-16T19:15:23.985Z,15.05
2022-12-16T19:18:12.028Z,17.65
2022-12-16T19:20:58.496Z,12.80
2022-12-16T19:23:45.321Z,13.62
2022-12-16T19:26:31.849Z,14.25
2022-12-16T19:29:19.053Z,15.75
2022-12-16T19:32:05.721Z,16.05
2022-12-16T19:34:52.644Z,15.00
2022-12-16T19:37:39.822Z,18.05
2022-12-16T19:40:29.816Z,16.48
2022-12-16T19:43:16.364Z,18.60
2022-12-16T19:46:33.988Z,16.87
2022-12-16T19:49:20.041Z,19.10
2022-12-16T19:52:06.635Z,16.23
2022-12-16T19:54:54.833Z,24.75
2022-12-16T19:57:46.947Z,30.40
2022-12-16T20:00:33.948Z,25.33
2022-12-16T20:03:20.637Z,24.92
2022-12-16T20:06:17.077Z,17.70
2022-12-16T20:09:03.904Z,16.65
2022-12-16T20:11:55.169Z,15.30
2022-12-16T20:17:33.470Z,22.00
2022-12-16T20:20:19.904Z,29.37
2022-12-16T20:23:06.245Z,24.70
2022-12-16T20:25:56.342Z,37.67
2022-12-16T20:28:45.558Z,31.42
2022-12-16T20:31:35.633Z,26.98
2022-12-16T20:34:22.045Z,20.40
2022-12-16T20:37:09.025Z,18.85
2022-12-16T20:43:02.392Z,20.15
2022-12-16T20:45:49.146Z,14.32
2022-12-16T20:48:35.835Z,17.50
2022-12-16T20:51:26.781Z,19.75
2022-12-16T20:54:14.449Z,15.23
2022-12-16T20:57:01.011Z,14.82
2022-12-16T20:59:48.249Z,17.08
2022-12-16T21:02:34.965Z,14.73
2022-12-16T21:05:22.538Z,13.75
2022-12-16T21:08:12.096Z,11.55
2022-12-16T21:10:59.267Z,10.95
2022-12-16T21:13:45.916Z,12.30
2022-12-16T21:16:33.022Z,11.98
2022-12-16T21:19:19.606Z,11.38
2022-12-16T21:22:06.486Z,12.95
2022-12-16T21:24:53.292Z,12.27
2022-12-16T21:27:40.114Z,10.85
2022-12-16T21:30:27.532Z,12.73
2022-12-16T21:33:14.199Z,8.50
2022-12-16T21:36:00.820Z,8.60
2022-12-16T21:38:47.569Z,11.27
2022-12-16T21:41:33.926Z,9.07
2022-12-16T21:44:20.762Z,16.95
2022-12-16T21:47:09.722Z,11.80
2022-12-16T21:50:01.114Z,11.18
2022-12-16T21:52:49.693Z,12.82
2022-12-16T21:55:36.670Z,10.38
2022-12-16T21:58:31.321Z,15.48
2022-12-16T22:01:21.462Z,12.80
2022-12-16T22:04:09.072Z,9.10
2022-12-16T22:06:55.986Z,12.85
2022-12-16T22:09:42.833Z,10.27
2022-12-16T22:12:29.417Z,12.73
2022-12-16T22:15:18.078Z,13.98
2022-12-16T22:18:04.579Z,9.30
2022-12-16T22:20:51.834Z,13.35
2022-12-16T22:23:38.427Z,9.43
2022-12-16T22:26:25.324Z,11.90
2022-12-16T22:29:11.675Z,11.98
2022-12-16T22:31:59.076Z,13.55
2022-12-16T22:34:45.560Z,13.65
2022-12-16T22:37:32.366Z,10.45
2022-12-16T22:40:18.842Z,13.10
2022-12-16T22:43:08.641Z,12.63
2022-12-16T22:45:56.222Z,12.73
2022-12-16T22:48:42.958Z,14.18
2022-12-16T22:51:33.987Z,16.35
2022-12-16T22:54:20.932Z,13.40
2022-12-16T22:57:07.305Z,13.23
2022-12-16T22:59:54.243Z,12.82
2022-12-16T23:02:43.395Z,12.05
2022-12-16T23:05:33.599Z,13.57
2022-12-16T23:08:20.185Z,8.93
2022-12-16T23:11:16.860Z,13.05
2022-12-16T23:14:03.404Z,15.25
2022-12-16T23:16:50.399Z,9.43
2022-12-16T23:19:36.929Z,9.52
2022-12-16T23:22:23.679Z,12.18
2022-12-16T23:25:12.645Z,14.20
2022-12-16T23:27:59.983Z,14.35
2022-12-16T23:30:46.409Z,11.82
2022-12-16T23:32:31.028Z,13.13
2022-12-16T23:33:33.662Z,9.98
2022-12-16T23:36:20.211Z,12.07
2022-12-16T23:39:09.765Z,10.60
2022-12-16T23:41:56.051Z,13.82
2022-12-16T23:44:43.447Z,14.90
2022-12-16T23:47:33.108Z,16.77
2022-12-16T23:50:20.124Z,16.70
2022-12-16T23:53:06.456Z,16.58
2022-12-16T23:55:53.438Z,12.70
2022-12-16T23:58:39.992Z,14.70
